Time;durP1;ratioP1;P1;durP2;ratioP2;P2;SDS_P1;SDS_P2;PMS_P1;PMS_P2;Temp;Humidity;BMP_temperature;BMP_pressure;BME280_temperature;BME280_humidity;BME280_pressure;Samples;Min_cycle;Max_cycle;Signal;HPM_P1;HPM_P2
2024/04/13 00:02:22;;;;;;;13.80;12.40;;;;;;;;;;6282326;22;20063;-94
2024/04/13 00:04:50;;;;;;;15.07;13.70;;;;;;;;;;6286803;22;20490;-96
2024/04/13 00:07:16;;;;;;;11.13;9.60;;;;;;;;;;6283482;22;20000;-94
2024/04/13 00:09:42;;;;;;;14.05;12.77;;;;;;;;;;6284796;22;20507;-94
2024/04/13 00:12:09;;;;;;;14.13;12.65;;;;;;;;;;6283774;22;20082;-95
2024/04/13 00:14:36;;;;;;;12.48;9.82;;;;;;;;;;6283793;22;20437;-95
2024/04/13 00:17:02;;;;;;;15.32;13.93;;;;;;;;;;6282633;22;20000;-94
2024/04/13 00:19:28;;;;;;;12.98;11.52;;;;;;;;;;6285343;22;20007;-94
2024/04/13 00:21:55;;;;;;;11.82;10.70;;;;;;;;;;6282664;22;20374;-94
2024/04/13 00:24:22;;;;;;;14.75;10.27;;;;;;;;;;6283493;22;20018;-94
2024/04/13 00:26:48;;;;;;;12.05;10.82;;;;;;;;;;6282669;22;20003;-93
2024/04/13 00:29:14;;;;;;;14.18;12.68;;;;;;;;;;6282930;22;20003;-95
2024/04/13 00:31:40;;;;;;;8.63;7.68;;;;;;;;;;6282160;22;20337;-94
2024/04/13 00:34:07;;;;;;;8.90;7.40;;;;;;;;;;6283904;22;20439;-95
2024/04/13 00:36:35;;;;;;;11.57;8.50;;;;;;;;;;6284283;22;20013;-95
2024/04/13 00:39:04;;;;;;;9.88;7.45;;;;;;;;;;6285653;22;20003;-95
2024/04/13 00:41:30;;;;;;;10.27;9.05;;;;;;;;;;6282225;22;20010;-94
2024/04/13 00:43:59;;;;;;;9.25;7.47;;;;;;;;;;6289498;22;20110;-94
2024/04/13 00:46:27;;;;;;;7.93;7.10;;;;;;;;;;6282932;22;20062;-95
2024/04/13 00:48:54;;;;;;;8.65;6.70;;;;;;;;;;6284826;22;20007;-94
2024/04/13 00:51:23;;;;;;;9.20;6.82;;;;;;;;;;6282156;22;20003;-95
2024/04/13 00:53:49;;;;;;;11.52;8.75;;;;;;;;;;6285391;22;20007;-95
2024/04/13 00:56:16;;;;;;;12.68;7.95;;;;;;;;;;6281881;22;20471;-96
2024/04/13 00:58:43;;;;;;;8.70;7.60;;;;;;;;;;6286039;22;20059;-94
2024/04/13 01:01:10;;;;;;;12.77;7.95;;;;;;;;;;6285682;22;20011;-94
2024/04/13 01:03:38;;;;;;;13.05;7.63;;;;;;;;;;6285739;22;20011;-95
2024/04/13 01:06:08;;;;;;;16.90;7.50;;;;;;;;;;6287740;22;20000;-94
2024/04/13 01:08:34;;;;;;;10.23;8.68;;;;;;;;;;6288722;22;20433;-94
2024/04/13 01:11:01;;;;;;;13.57;7.85;;;;;;;;;;6288164;22;20003;-95
2024/04/13 01:13:28;;;;;;;12.07;9.88;;;;;;;;;;6286141;22;20011;-94
2024/04/13 01:15:54;;;;;;;8.45;7.57;;;;;;;;;;6285254;22;20007;-95
2024/04/13 01:18:20;;;;;;;8.65;7.85;;;;;;;;;;6287357;22;20003;-93
2024/04/13 01:20:48;;;;;;;9.45;8.13;;;;;;;;;;6285493;22;20078;-94
2024/04/13 01:23:17;;;;;;;11.20;7.78;;;;;;;;;;6289293;22;20464;-95
2024/04/13 01:25:43;;;;;;;13.93;7.47;;;;;;;;;;6288667;22;20003;-93
2024/04/13 01:28:10;;;;;;;14.80;9.13;;;;;;;;;;6291491;22;20064;-93
2024/04/13 01:30:36;;;;;;;10.40;9.40;;;;;;;;;;6287957;22;20015;-94
2024/04/13 01:33:03;;;;;;;13.60;8.88;;;;;;;;;;6288560;22;20003;-94
2024/04/13 01:35:30;;;;;;;9.20;8.23;;;;;;;;;;6290367;22;20004;-94
2024/04/13 01:37:56;;;;;;;10.73;7.35;;;;;;;;;;6287530;22;20011;-94
2024/04/13 01:40:22;;;;;;;12.52;10.88;;;;;;;;;;6289148;22;19988;-94
2024/04/13 01:42:48;;;;;;;11.73;9.05;;;;;;;;;;6286876;22;20096;-94
2024/04/13 01:45:18;;;;;;;11.90;9.95;;;;;;;;;;6287429;22;20005;-96
2024/04/13 01:47:44;;;;;;;11.35;8.63;;;;;;;;;;6286002;22;20011;-94
2024/04/13 01:50:12;;;;;;;9.85;8.77;;;;;;;;;;6286313;22;20007;-94
2024/04/13 01:52:38;;;;;;;9.52;8.02;;;;;;;;;;6289014;22;20013;-94
2024/04/13 01:55:05;;;;;;;10.48;9.48;;;;;;;;;;6289195;22;20011;-95
2024/04/13 01:58:07;;;;;;;11.25;8.60;;;;;;;;;;6289333;22;20011;-94
2024/04/13 02:00:35;;;;;;;9.52;7.80;;;;;;;;;;6287428;22;20018;-93
2024/04/13 02:03:01;;;;;;;10.13;8.80;;;;;;;;;;6287286;22;20451;-94
2024/04/13 02:05:27;;;;;;;15.82;14.38;;;;;;;;;;6285477;22;20003;-94
2024/04/13 02:07:53;;;;;;;9.80;8.02;;;;;;;;;;6288334;22;20370;-94
2024/04/13 02:10:20;;;;;;;18.25;9.45;;;;;;;;;;6288148;22;20004;-94
2024/04/13 02:12:51;;;;;;;11.00;8.45;;;;;;;;;;6287499;22;20048;-95
2024/04/13 02:15:17;;;;;;;16.70;9.70;;;;;;;;;;6286503;22;20085;-93
2024/04/13 02:17:43;;;;;;;14.95;11.20;;;;;;;;;;6286480;22;20003;-95
2024/04/13 02:20:14;;;;;;;12.20;11.07;;;;;;;;;;6287778;22;20007;-94
2024/04/13 02:22:40;;;;;;;12.82;11.52;;;;;;;;;;6287125;22;20014;-94
2024/04/13 02:25:08;;;;;;;14.32;9.80;;;;;;;;;;6287137;22;20497;-93
2024/04/13 02:27:35;;;;;;;12.80;10.18;;;;;;;;;;6285968;22;20140;-94
2024/04/13 02:30:03;;;;;;;13.73;12.32;;;;;;;;;;6285829;22;20062;-94
2024/04/13 02:32:29;;;;;;;12.68;11.40;;;;;;;;;;6285454;22;20004;-95
2024/04/13 02:34:55;;;;;;;13.45;12.15;;;;;;;;;;6284883;22;20011;-95
2024/04/13 02:37:22;;;;;;;13.02;8.20;;;;;;;;;;6287293;22;20504;-94
2024/04/13 02:39:48;;;;;;;11.98;10.77;;;;;;;;;;6286271;22;20007;-94
2024/04/13 02:42:15;;;;;;;13.30;12.00;;;;;;;;;;6290997;22;20003;-94
2024/04/13 02:44:41;;;;;;;14.38;13.05;;;;;;;;;;6310317;22;20000;-91
2024/04/13 02:47:07;;;;;;;14.25;12.90;;;;;;;;;;6306905;22;20007;-94
2024/04/13 02:49:33;;;;;;;12.60;10.02;;;;;;;;;;6299568;22;20014;-94
2024/04/13 02:51:59;;;;;;;12.10;10.15;;;;;;;;;;6288289;22;19999;-94
2024/04/13 02:54:26;;;;;;;13.88;12.60;;;;;;;;;;6285577;22;20007;-93
2024/04/13 02:56:52;;;;;;;11.95;9.75;;;;;;;;;;6287363;22;20003;-95
2024/04/13 02:59:18;;;;;;;13.65;10.15;;;;;;;;;;6286070;22;20332;-95
2024/04/13 03:01:44;;;;;;;13.38;12.15;;;;;;;;;;6287800;22;19992;-96
2024/04/13 03:04:10;;;;;;;12.90;10.73;;;;;;;;;;6285409;22;20532;-95
2024/04/13 03:06:37;;;;;;;12.13;10.93;;;;;;;;;;6286464;22;20077;-94
2024/04/13 03:09:04;;;;;;;14.50;12.93;;;;;;;;;;6285234;22;20007;-95
2024/04/13 03:11:32;;;;;;;14.38;11.00;;;;;;;;;;6286798;22;20010;-95
2024/04/13 03:13:58;;;;;;;14.43;12.85;;;;;;;;;;6287331;22;20010;-94
2024/04/13 03:16:24;;;;;;;15.23;13.75;;;;;;;;;;6286759;22;19999;-96
2024/04/13 03:18:56;;;;;;;12.40;8.32;;;;;;;;;;6287900;22;20063;-95
2024/04/13 03:21:23;;;;;;;11.02;8.82;;;;;;;;;;6289572;22;20007;-95
2024/04/13 03:23:51;;;;;;;12.15;10.82;;;;;;;;;;6286307;22;20011;-95
2024/04/13 03:26:17;;;;;;;12.55;11.27;;;;;;;;;;6287511;22;20003;-96
2024/04/13 03:28:43;;;;;;;12.93;9.93;;;;;;;;;;6285480;22;20003;-96
2024/04/13 03:31:09;;;;;;;13.75;9.52;;;;;;;;;;6284541;22;20010;-96
2024/04/13 03:33:36;;;;;;;12.45;11.25;;;;;;;;;;6286473;22;20011;-96
2024/04/13 03:36:06;;;;;;;15.43;11.68;;;;;;;;;;6285265;22;20063;-96
2024/04/13 03:38:32;;;;;;;14.30;9.57;;;;;;;;;;6285949;22;20003;-96
2024/04/13 03:41:00;;;;;;;10.15;8.32;;;;;;;;;;6285006;22;20003;-95
2024/04/13 03:43:26;;;;;;;13.98;10.45;;;;;;;;;;6310397;22;20022;-96
2024/04/13 03:45:53;;;;;;;12.50;9.43;;;;;;;;;;6282322;22;20000;-94
2024/04/13 03:48:19;;;;;;;12.25;9.32;;;;;;;;;;6282561;22;20417;-93
2024/04/13 03:50:45;;;;;;;14.77;13.32;;;;;;;;;;6283521;22;20349;-96
2024/04/13 03:53:13;;;;;;;13.18;11.73;;;;;;;;;;6286468;22;19991;-95
2024/04/13 03:55:39;;;;;;;15.15;13.75;;;;;;;;;;6286026;22;20332;-94
2024/04/13 03:58:05;;;;;;;15.00;13.52;;;;;;;;;;6287411;22;19999;-93
2024/04/13 04:00:31;;;;;;;11.68;10.27;;;;;;;;;;6284109;22;20019;-96
2024/04/13 04:02:57;;;;;;;12.70;10.70;;;;;;;;;;6284172;22;20015;-95
2024/04/13 04:05:24;;;;;;;11.18;8.05;;;;;;;;;;6285583;22;20004;-95
2024/04/13 04:07:52;;;;;;;9.95;8.95;;;;;;;;;;6284908;22;20008;-95
2024/04/13 04:10:18;;;;;;;16.73;11.35;;;;;;;;;;6286162;22;20091;-94
2024/04/13 04:12:45;;;;;;;12.90;10.23;;;;;;;;;;6285764;22;20006;-95
2024/04/13 04:15:12;;;;;;;13.52;10.73;;;;;;;;;;6312799;22;20456;-93
2024/04/13 04:17:39;;;;;;;12.98;11.18;;;;;;;;;;6288271;22;19983;-94
2024/04/13 04:20:05;;;;;;;11.25;9.95;;;;;;;;;;6291939;22;20010;-94
2024/04/13 04:22:32;;;;;;;12.18;9.43;;;;;;;;;;6287243;22;20011;-96
2024/04/13 04:24:58;;;;;;;13.23;10.02;;;;;;;;;;6286736;22;20003;-96
2024/04/13 04:27:25;;;;;;;13.45;9.75;;;;;;;;;;6286406;22;20333;-94
2024/04/13 04:29:57;;;;;;;12.93;11.20;;;;;;;;;;6285573;22;20010;-94
2024/04/13 04:32:23;;;;;;;13.40;9.88;;;;;;;;;;6288098;22;19999;-95
2024/04/13 04:34:52;;;;;;;9.50;8.38;;;;;;;;;;6283953;22;20485;-96
2024/04/13 04:37:18;;;;;;;11.27;7.88;;;;;;;;;;6285378;22;20008;-96
2024/04/13 04:39:45;;;;;;;11.38;9.48;;;;;;;;;;6286800;22;20409;-96
2024/04/13 04:42:11;;;;;;;15.75;9.13;;;;;;;;;;6287449;22;20440;-95
2024/04/13 04:44:37;;;;;;;10.00;9.02;;;;;;;;;;6284887;22;20080;-96
2024/04/13 04:47:03;;;;;;;9.93;8.70;;;;;;;;;;6288736;22;20034;-95
2024/04/13 04:49:30;;;;;;;10.18;8.60;;;;;;;;;;6286035;22;20007;-93
2024/04/13 04:51:56;;;;;;;12.05;9.65;;;;;;;;;;6285585;22;20004;-94
2024/04/13 04:54:23;;;;;;;8.27;6.32;;;;;;;;;;6285480;22;20000;-93
2024/04/13 04:56:49;;;;;;;9.80;8.70;;;;;;;;;;6288278;22;20007;-94
2024/04/13 04:59:15;;;;;;;9.07;8.18;;;;;;;;;;6285300;22;20375;-95
2024/04/13 05:01:41;;;;;;;11.32;10.32;;;;;;;;;;6286903;22;20004;-94
2024/04/13 05:04:07;;;;;;;12.10;10.32;;;;;;;;;;6286893;22;20340;-94
2024/04/13 05:09:37;;;;;;;11.57;10.68;;;;;;;;;;6358643;22;20049;-94
2024/04/13 05:12:11;;;;;;;11.70;10.75;;;;;;;;;;6349975;22;20006;-93
2024/04/13 05:14:40;;;;;;;12.70;11.48;;;;;;;;;;6348990;22;20003;-93
2024/04/13 05:17:07;;;;;;;14.45;13.32;;;;;;;;;;6344541;22;20081;-94
2024/04/13 05:20:03;;;;;;;22.42;20.77;;;;;;;;;;6351791;22;20053;-95
2024/04/13 05:22:47;;;;;;;22.88;20.95;;;;;;;;;;6346233;22;20335;-93
2024/04/13 05:25:24;;;;;;;23.95;22.25;;;;;;;;;;6346893;22;20403;-93
2024/04/13 05:27:56;;;;;;;25.73;23.98;;;;;;;;;;6354233;22;20003;-95
2024/04/13 05:30:32;;;;;;;33.35;31.10;;;;;;;;;;6349575;22;20006;-95
2024/04/13 05:32:58;;;;;;;33.60;31.27;;;;;;;;;;6353501;22;19991;-94
2024/04/13 05:38:29;;;;;;;27.73;25.55;;;;;;;;;;6372376;22;20446;-95
2024/04/13 05:40:59;;;;;;;38.45;35.60;;;;;;;;;;6345124;22;20002;-96
2024/04/13 05:43:34;;;;;;;58.92;55.42;;;;;;;;;;6344314;22;20143;-96
2024/04/13 05:46:18;;;;;;;61.15;57.20;;;;;;;;;;6356151;22;19994;-95
2024/04/13 05:51:27;;;;;;;55.33;51.88;;;;;;;;;;6342942;22;20034;-94
2024/04/13 06:03:14;;;;;;;17.70;16.13;;;;;;;;;;6315213;22;20041;-93
2024/04/13 06:05:43;;;;;;;12.90;12.00;;;;;;;;;;6346281;22;20007;-96
2024/04/13 06:08:10;;;;;;;14.80;13.80;;;;;;;;;;6348788;22;20336;-94
2024/04/13 06:10:39;;;;;;;11.65;10.80;;;;;;;;;;6351213;22;20002;-96
2024/04/13 06:13:33;;;;;;;12.00;11.00;;;;;;;;;;6355363;22;20006;-96
2024/04/13 06:19:07;;;;;;;12.93;11.80;;;;;;;;;;6299485;22;20019;-94
2024/04/13 06:21:56;;;;;;;9.88;9.05;;;;;;;;;;6316446;22;20443;-96
2024/04/13 06:24:54;;;;;;;11.70;10.68;;;;;;;;;;6318666;22;20025;-95
2024/04/13 06:30:26;;;;;;;11.38;10.15;;;;;;;;;;6343406;22;20010;-96
2024/04/13 06:33:55;;;;;;;;;;;;;;;;;;;;;
2024/04/13 06:36:14;;;;;;;8.75;7.03;;;;;;;;;;6336769;22;20032;-95
2024/04/13 06:38:40;;;;;;;9.88;5.82;;;;;;;;;;6318323;22;20451;-95
2024/04/13 06:44:18;;;;;;;8.93;6.45;;;;;;;;;;6185802;23;20167;-93
2024/04/13 06:46:58;;;;;;;8.45;7.45;;;;;;;;;;6185351;23;20012;-93
2024/04/13 06:49:25;;;;;;;9.18;8.25;;;;;;;;;;6310927;22;20052;-92
2024/04/13 06:52:04;;;;;;;10.15;7.35;;;;;;;;;;6319164;22;20024;-92
2024/04/13 06:54:33;;;;;;;8.77;7.82;;;;;;;;;;6314941;22;20432;-95
2024/04/13 06:56:59;;;;;;;8.18;7.47;;;;;;;;;;6317920;22;20078;-94
2024/04/13 06:59:25;;;;;;;10.07;9.27;;;;;;;;;;6315364;22;20003;-94
2024/04/13 07:01:52;;;;;;;14.48;10.48;;;;;;;;;;6313402;22;20191;-94
2024/04/13 07:04:18;;;;;;;11.30;9.00;;;;;;;;;;6313413;22;20083;-93
2024/04/13 07:07:03;;;;;;;9.88;9.00;;;;;;;;;;6313565;22;20007;-93
2024/04/13 07:09:29;;;;;;;8.63;7.93;;;;;;;;;;6314194;22;20030;-90
2024/04/13 07:11:58;;;;;;;11.48;9.13;;;;;;;;;;6316409;22;20003;-95
2024/04/13 07:14:24;;;;;;;7.72;6.47;;;;;;;;;;6314747;22;20009;-91
2024/04/13 07:16:53;;;;;;;10.18;9.18;;;;;;;;;;6313550;22;20033;-93
2024/04/13 07:19:22;;;;;;;13.00;9.10;;;;;;;;;;6313841;22;20089;-93
2024/04/13 07:21:48;;;;;;;6.15;5.55;;;;;;;;;;6313990;22;20006;-94
2024/04/13 07:24:15;;;;;;;7.90;7.22;;;;;;;;;;6314412;22;20014;-92
2024/04/13 07:26:41;;;;;;;8.05;7.30;;;;;;;;;;6288922;22;20006;-95
2024/04/13 07:29:07;;;;;;;5.28;2.30;;;;;;;;;;6313047;22;20003;-93
2024/04/13 07:31:34;;;;;;;5.60;3.30;;;;;;;;;;6342595;22;20003;-90
2024/04/13 07:34:00;;;;;;;8.15;6.28;;;;;;;;;;6313522;22;20009;-91
2024/04/13 07:36:26;;;;;;;3.88;2.17;;;;;;;;;;6313673;22;20327;-92
2024/04/13 07:38:57;;;;;;;8.00;6.47;;;;;;;;;;6313676;22;20006;-94
2024/04/13 07:41:46;;;;;;;5.50;5.00;;;;;;;;;;6313531;22;20061;-94
2024/04/13 07:44:21;;;;;;;6.32;3.17;;;;;;;;;;6322362;22;20086;-93
2024/04/13 07:46:50;;;;;;;3.33;1.95;;;;;;;;;;6312415;22;20337;-91
2024/04/13 07:49:25;;;;;;;6.18;3.33;;;;;;;;;;6312961;22;20431;-94
2024/04/13 07:51:51;;;;;;;4.05;1.83;;;;;;;;;;6312977;22;20007;-91
2024/04/13 07:54:20;;;;;;;7.22;6.22;;;;;;;;;;6313226;22;20021;-92
2024/04/13 07:57:08;;;;;;;8.73;8.02;;;;;;;;;;6313059;22;20026;-94
2024/04/13 07:59:49;;;;;;;5.07;4.40;;;;;;;;;;6312322;22;19998;-96
2024/04/13 08:02:21;;;;;;;6.95;5.82;;;;;;;;;;6314058;22;20081;-94
2024/04/13 08:08:25;;;;;;;5.95;5.35;;;;;;;;;;6287276;22;20011;-93
2024/04/13 08:10:54;;;;;;;5.78;4.82;;;;;;;;;;6311850;22;20053;-95
2024/04/13 08:16:22;;;;;;;7.13;4.18;;;;;;;;;;6276962;22;20006;-92
2024/04/13 08:18:48;;;;;;;4.38;2.30;;;;;;;;;;6313214;22;20030;-93
2024/04/13 08:21:14;;;;;;;6.72;2.47;;;;;;;;;;6313203;22;20037;-93
2024/04/13 08:23:43;;;;;;;6.60;4.95;;;;;;;;;;6312729;22;20038;-94
2024/04/13 08:29:16;;;;;;;6.32;4.47;;;;;;;;;;6340692;22;20488;-93
2024/04/13 08:31:42;;;;;;;7.68;5.82;;;;;;;;;;6312970;22;20003;-93
2024/04/13 08:34:18;;;;;;;7.05;6.35;;;;;;;;;;6316563;22;20026;-95
2024/04/13 08:36:53;;;;;;;7.47;6.85;;;;;;;;;;6348425;22;20030;-93
2024/04/13 08:39:19;;;;;;;7.13;5.95;;;;;;;;;;6323179;22;20907;-95
2024/04/13 08:42:11;;;;;;;8.63;6.93;;;;;;;;;;6369608;22;19994;-94
2024/04/13 08:44:56;;;;;;;;;;;;;;;;;;6364355;22;20435;-94
2024/04/13 08:47:29;;;;;;;9.52;8.30;;;;;;;;;;6347289;22;19922;-96
2024/04/13 08:49:58;;;;;;;21.17;6.25;;;;;;;;;;6308200;22;20007;-95
2024/04/13 08:52:24;;;;;;;6.60;6.00;;;;;;;;;;6280487;22;20085;-92
2024/04/13 08:54:51;;;;;;;8.07;5.05;;;;;;;;;;6281008;22;20027;-91
2024/04/13 08:57:24;;;;;;;6.88;6.03;;;;;;;;;;6281152;22;20003;-93
2024/04/13 08:59:51;;;;;;;9.63;3.83;;;;;;;;;;6280513;22;20003;-93
2024/04/13 09:02:40;;;;;;;9.90;4.75;;;;;;;;;;6280759;22;20090;-94
2024/04/13 09:05:08;;;;;;;6.70;4.88;;;;;;;;;;6280712;22;20011;-92
2024/04/13 09:07:35;;;;;;;7.40;4.95;;;;;;;;;;6280706;22;20071;-94
2024/04/13 09:10:01;;;;;;;5.80;5.22;;;;;;;;;;6280068;22;20035;-94
2024/04/13 09:12:27;;;;;;;5.78;4.85;;;;;;;;;;6280787;22;20108;-94
2024/04/13 09:14:54;;;;;;;7.35;6.65;;;;;;;;;;6280577;22;20014;-94
2024/04/13 09:17:20;;;;;;;8.10;7.40;;;;;;;;;;6280460;22;20065;-92
2024/04/13 09:22:48;;;;;;;10.43;8.43;;;;;;;;;;6271328;22;20053;-94
2024/04/13 09:25:42;;;;;;;;;;;;;;;;;;;;;
2024/04/13 09:28:10;;;;;;;7.88;6.78;;;;;;;;;;6351067;22;20057;-96
2024/04/13 09:31:03;;;;;;;7.03;6.07;;;;;;;;;;6318656;22;20059;-96
2024/04/13 09:33:37;;;;;;;14.65;7.07;;;;;;;;;;6328290;22;19999;-93
2024/04/13 09:36:25;;;;;;;8.95;4.82;;;;;;;;;;6320225;22;20011;-94
2024/04/13 09:38:57;;;;;;;9.68;8.35;;;;;;;;;;6347613;22;20003;-95
2024/04/13 09:41:45;;;;;;;;;;;;;;;;;;;;;
2024/04/13 09:44:12;;;;;;;8.57;6.25;;;;;;;;;;6316179;22;20027;-96
2024/04/13 09:49:35;;;;;;;8.45;7.63;;;;;;;;;;6282510;22;20057;-95
2024/04/13 09:52:04;;;;;;;9.65;8.75;;;;;;;;;;6280965;22;20004;-96
2024/04/13 09:58:04;;;;;;;9.10;8.30;;;;;;;;;;6220390;22;20427;-96
2024/04/13 10:01:12;;;;;;;;;;;;;;;;;;;;;
2024/04/13 10:04:05;;;;;;;8.63;7.93;;;;;;;;;;6247913;22;20054;-94
2024/04/13 10:06:58;;;;;;;12.65;11.80;;;;;;;;;;6292469;22;20073;-96
2024/04/13 11:48:31;;;;;;;19.15;17.85;;;;;;;;;;6329650;22;20106;-94
2024/04/13 12:57:23;;;;;;;15.40;14.20;;;;;;;;;;6377607;22;20017;-94
2024/04/13 13:00:29;;;;;;;19.90;18.08;;;;;;;;;;6349676;22;20091;-91
2024/04/13 13:12:10;;;;;;;23.98;21.75;;;;;;;;;;6311780;22;20003;-94
2024/04/13 17:27:08;;;;;;;54.40;50.77;;;;;;;;;;6365192;22;20027;-91
2024/04/13 18:14:39;;;;;;;19.13;17.60;;;;;;;;;;6370791;22;20300;-93
2024/04/13 18:17:08;;;;;;;24.50;14.98;;;;;;;;;;6350604;22;20006;-95
2024/04/13 18:27:49;;;;;;;18.65;17.05;;;;;;;;;;6339963;22;20052;-95
2024/04/13 18:30:20;;;;;;;17.35;15.52;;;;;;;;;;6359150;22;20017;-94
2024/04/13 18:35:21;;;;;;;22.05;18.98;;;;;;;;;;6329972;22;20063;-96
2024/04/13 18:41:02;;;;;;;16.25;12.50;;;;;;;;;;6324814;22;20065;-92
2024/04/13 18:43:29;;;;;;;20.67;18.92;;;;;;;;;;6311044;22;20080;-94
2024/04/13 18:46:12;;;;;;;14.82;13.48;;;;;;;;;;6291935;22;20007;-95
2024/04/13 18:48:57;;;;;;;11.60;10.70;;;;;;;;;;6257189;23;20000;-96
2024/04/13 18:51:23;;;;;;;13.38;9.85;;;;;;;;;;6253972;23;20003;-95
2024/04/13 18:53:52;;;;;;;15.65;12.73;;;;;;;;;;6228777;23;20024;-94
2024/04/13 18:56:24;;;;;;;11.48;10.38;;;;;;;;;;6253977;23;20004;-94
2024/04/13 18:58:52;;;;;;;12.85;11.43;;;;;;;;;;6252618;23;20008;-94
2024/04/13 19:01:19;;;;;;;19.30;16.85;;;;;;;;;;6255381;23;20000;-93
2024/04/13 19:03:48;;;;;;;15.50;14.35;;;;;;;;;;6229488;23;20020;-92
2024/04/13 19:08:54;;;;;;;21.95;20.45;;;;;;;;;;6360401;22;20034;-96
2024/04/13 19:11:21;;;;;;;33.90;31.77;;;;;;;;;;6352966;22;20009;-95
2024/04/13 19:13:58;;;;;;;14.15;13.00;;;;;;;;;;6354844;22;20002;-94
2024/04/13 19:16:25;;;;;;;21.00;19.27;;;;;;;;;;6354784;22;20002;-95
2024/04/13 19:19:15;;;;;;;31.17;29.13;;;;;;;;;;6361599;22;20018;-96
2024/04/13 19:21:51;;;;;;;23.30;21.63;;;;;;;;;;6355953;22;20002;-96
2024/04/13 19:24:37;;;;;;;15.57;14.38;;;;;;;;;;6328404;22;20085;-95
2024/04/13 19:27:06;;;;;;;13.95;12.88;;;;;;;;;;6350100;22;20327;-95
2024/04/13 19:29:35;;;;;;;21.35;19.75;;;;;;;;;;6346239;22;20085;-93
2024/04/13 19:35:06;;;;;;;16.83;15.23;;;;;;;;;;6389037;22;20009;-94
2024/04/13 19:37:33;;;;;;;22.98;21.23;;;;;;;;;;6325165;22;20014;-93
2024/04/13 19:40:02;;;;;;;31.20;29.10;;;;;;;;;;6349427;22;20025;-94
2024/04/13 19:42:30;;;;;;;38.75;36.17;;;;;;;;;;6373217;22;20002;-94
2024/04/13 19:44:56;;;;;;;28.25;26.05;;;;;;;;;;6349497;22;20459;-96
2024/04/13 19:47:22;;;;;;;27.13;25.10;;;;;;;;;;6350663;22;20002;-95
2024/04/13 19:49:48;;;;;;;33.88;31.55;;;;;;;;;;6349252;22;20035;-94
2024/04/13 19:52:14;;;;;;;16.75;15.48;;;;;;;;;;6350406;22;20032;-93
2024/04/13 19:54:41;;;;;;;25.20;23.42;;;;;;;;;;6348020;22;20435;-94
2024/04/13 19:57:07;;;;;;;13.88;11.13;;;;;;;;;;6350646;22;20002;-95
2024/04/13 19:59:33;;;;;;;17.75;16.10;;;;;;;;;;6344853;22;20049;-94
2024/04/13 20:01:59;;;;;;;12.57;9.68;;;;;;;;;;6346556;22;20023;-93
2024/04/13 20:04:25;;;;;;;14.02;12.32;;;;;;;;;;6346760;22;20017;-94
2024/04/13 20:06:52;;;;;;;18.08;16.45;;;;;;;;;;6373939;22;20361;-93
2024/04/13 20:09:19;;;;;;;11.55;9.77;;;;;;;;;;6346678;22;20409;-93
2024/04/13 20:11:46;;;;;;;12.98;8.95;;;;;;;;;;6346413;22;20003;-94
2024/04/13 20:14:12;;;;;;;12.77;9.68;;;;;;;;;;6346234;22;20006;-93
2024/04/13 20:19:24;;;;;;;17.52;12.93;;;;;;;;;;6387947;22;20067;-93
2024/04/13 20:21:53;;;;;;;16.08;10.90;;;;;;;;;;6349620;22;20002;-95
2024/04/13 20:24:19;;;;;;;13.82;10.35;;;;;;;;;;6344771;22;20014;-95
2024/04/13 20:26:45;;;;;;;15.73;11.23;;;;;;;;;;6346862;22;19998;-95
2024/04/13 20:29:11;;;;;;;11.80;10.15;;;;;;;;;;6345676;22;20438;-92
2024/04/13 20:31:39;;;;;;;11.50;10.10;;;;;;;;;;6344594;22;20026;-94
2024/04/13 20:34:05;;;;;;;14.10;10.23;;;;;;;;;;6350384;22;20030;-95
2024/04/13 20:36:31;;;;;;;16.42;10.70;;;;;;;;;;6346030;22;20002;-93
2024/04/13 20:38:57;;;;;;;9.73;8.55;;;;;;;;;;6344428;22;20009;-95
2024/04/13 20:41:25;;;;;;;12.18;9.98;;;;;;;;;;6344085;22;20029;-93
2024/04/13 20:43:53;;;;;;;12.95;10.07;;;;;;;;;;6346047;22;20031;-96
2024/04/13 20:46:22;;;;;;;16.45;10.50;;;;;;;;;;6346078;22;20085;-96
2024/04/13 20:48:50;;;;;;;12.75;8.60;;;;;;;;;;6346430;22;20003;-95
2024/04/13 20:51:16;;;;;;;10.00;9.02;;;;;;;;;;6344138;22;20007;-96
2024/04/13 20:53:42;;;;;;;11.80;9.13;;;;;;;;;;6344810;22;20002;-94
2024/04/13 20:56:08;;;;;;;13.88;9.13;;;;;;;;;;6344610;22;20007;-93
2024/04/13 20:58:34;;;;;;;15.48;9.18;;;;;;;;;;6344970;22;20005;-95
2024/04/13 21:01:01;;;;;;;10.93;8.93;;;;;;;;;;6372348;22;20002;-95
2024/04/13 21:03:30;;;;;;;9.02;7.72;;;;;;;;;;6344976;22;20491;-95
2024/04/13 21:05:56;;;;;;;10.93;7.32;;;;;;;;;;6345435;22;20418;-94
2024/04/13 21:08:22;;;;;;;9.98;8.98;;;;;;;;;;6344011;22;20052;-93
2024/04/13 21:10:51;;;;;;;8.73;7.80;;;;;;;;;;6343963;22;19999;-95
2024/04/13 21:13:17;;;;;;;9.15;8.23;;;;;;;;;;6343899;22;20056;-95
2024/04/13 21:15:44;;;;;;;8.75;7.38;;;;;;;;;;6343738;22;20002;-94
2024/04/13 21:18:10;;;;;;;9.15;7.00;;;;;;;;;;6344120;22;20014;-95
2024/04/13 21:20:37;;;;;;;8.43;6.50;;;;;;;;;;6344391;22;20034;-95
2024/04/13 21:23:03;;;;;;;8.90;7.28;;;;;;;;;;6344108;22;20396;-96
2024/04/13 21:25:36;;;;;;;13.13;7.93;;;;;;;;;;6344597;22;20002;-95
2024/04/13 21:28:02;;;;;;;8.50;7.50;;;;;;;;;;6344210;22;20434;-95
2024/04/13 21:30:29;;;;;;;9.95;7.13;;;;;;;;;;6347218;22;20010;-96
2024/04/13 21:32:56;;;;;;;8.80;6.35;;;;;;;;;;6344781;22;20369;-95
2024/04/13 21:35:22;;;;;;;7.05;6.35;;;;;;;;;;6345783;22;20006;-94
2024/04/13 21:40:58;;;;;;;11.35;6.18;;;;;;;;;;6309013;22;20017;-92
2024/04/13 21:43:25;;;;;;;9.77;7.30;;;;;;;;;;6346507;22;20017;-93
2024/04/13 21:45:51;;;;;;;7.63;6.90;;;;;;;;;;6346449;22;20024;-94
2024/04/13 21:48:17;;;;;;;7.78;6.50;;;;;;;;;;6346380;22;20373;-94
2024/04/13 21:50:49;;;;;;;8.10;6.95;;;;;;;;;;6346272;22;20361;-95
2024/04/13 21:53:15;;;;;;;9.73;7.38;;;;;;;;;;6346554;22;19999;-94
2024/04/13 21:55:41;;;;;;;9.55;7.45;;;;;;;;;;6345912;22;20107;-94
2024/04/13 21:58:08;;;;;;;8.40;7.57;;;;;;;;;;6346119;22;20430;-93
2024/04/13 22:00:34;;;;;;;14.45;9.95;;;;;;;;;;6346501;22;20009;-95
2024/04/13 22:05:36;;;;;;;14.63;8.05;;;;;;;;;;6378673;22;20068;-95
2024/04/13 22:08:10;;;;;;;8.82;8.02;;;;;;;;;;6345365;22;19998;-95
2024/04/13 22:10:36;;;;;;;8.20;7.30;;;;;;;;;;6345445;22;20010;-94
2024/04/13 22:13:03;;;;;;;14.35;7.55;;;;;;;;;;6345997;22;20003;-93
2024/04/13 22:15:29;;;;;;;9.25;7.50;;;;;;;;;;6345735;22;20010;-94
2024/04/13 22:17:56;;;;;;;9.05;8.05;;;;;;;;;;6345556;22;20415;-94
2024/04/13 22:20:25;;;;;;;9.38;7.65;;;;;;;;;;6346020;22;20006;-95
2024/04/13 22:22:52;;;;;;;14.25;8.98;;;;;;;;;;6346253;22;20075;-93
2024/04/13 22:25:22;;;;;;;10.98;8.32;;;;;;;;;;6345465;22;20331;-95
2024/04/13 22:27:48;;;;;;;8.90;8.00;;;;;;;;;;6345648;22;20003;-92
2024/04/13 22:30:15;;;;;;;19.77;17.92;;;;;;;;;;6344992;22;20090;-95
2024/04/13 22:32:47;;;;;;;15.13;7.35;;;;;;;;;;6345477;22;20006;-94
2024/04/13 22:35:14;;;;;;;10.18;6.75;;;;;;;;;;6346075;22;20435;-94
2024/04/13 22:37:42;;;;;;;12.48;10.18;;;;;;;;;;6345794;22;20006;-94
2024/04/13 22:40:11;;;;;;;12.90;11.68;;;;;;;;;;6345284;22;20010;-94
2024/04/13 22:42:46;;;;;;;16.90;13.88;;;;;;;;;;6345929;22;20006;-95
2024/04/13 22:45:12;;;;;;;14.45;13.00;;;;;;;;;;6344812;22;20010;-95
2024/04/13 22:47:38;;;;;;;17.00;15.50;;;;;;;;;;6345364;22;20044;-94
2024/04/13 22:50:06;;;;;;;15.23;13.43;;;;;;;;;;6345205;22;20007;-95
2024/04/13 22:52:33;;;;;;;16.25;14.82;;;;;;;;;;6344678;22;20128;-95
2024/04/13 22:55:00;;;;;;;16.73;15.20;;;;;;;;;;6346197;22;20003;-96
2024/04/13 22:57:35;;;;;;;17.20;15.45;;;;;;;;;;6345603;22;20546;-95
2024/04/13 23:00:01;;;;;;;15.50;14.00;;;;;;;;;;6347351;22;20003;-93
2024/04/13 23:04:57;;;;;;;13.13;11.93;;;;;;;;;;6280604;22;20085;-94
2024/04/13 23:07:23;;;;;;;13.77;12.38;;;;;;;;;;6252502;22;20068;-95
2024/04/13 23:09:56;;;;;;;13.35;12.13;;;;;;;;;;6252786;22;20095;-95
2024/04/13 23:12:37;;;;;;;10.55;9.45;;;;;;;;;;6255446;22;20003;-95
2024/04/13 23:15:18;;;;;;;12.23;9.82;;;;;;;;;;6253850;22;20041;-94
2024/04/13 23:17:51;;;;;;;11.55;9.15;;;;;;;;;;6253393;22;20003;-93
2024/04/13 23:23:16;;;;;;;10.20;9.13;;;;;;;;;;6267393;22;19994;-95
2024/04/13 23:25:45;;;;;;;11.75;9.77;;;;;;;;;;6253271;22;20451;-95
2024/04/13 23:28:47;;;;;;;9.48;8.48;;;;;;;;;;6253152;22;20436;-96
2024/04/13 23:34:52;;;;;;;12.75;9.52;;;;;;;;;;6098535;23;20150;-95
2024/04/13 23:37:18;;;;;;;11.00;8.05;;;;;;;;;;6098429;23;20061;-95
2024/04/13 23:40:00;;;;;;;11.35;8.40;;;;;;;;;;6182900;23;20253;-95
2024/04/13 23:42:26;;;;;;;9.20;7.10;;;;;;;;;;6187184;23;20485;-96
2024/04/13 23:44:55;;;;;;;14.52;9.27;;;;;;;;;;6163756;23;20491;-95
2024/04/13 23:47:28;;;;;;;17.85;11.40;;;;;;;;;;6210977;23;19994;-94
2024/04/13 23:49:57;;;;;;;13.75;10.00;;;;;;;;;;6193186;23;20013;-96
2024/04/13 23:52:29;;;;;;;20.42;11.75;;;;;;;;;;6224678;22;20078;-95
2024/04/13 23:54:55;;;;;;;17.38;10.77;;;;;;;;;;6252363;22;20436;-94
2024/04/13 23:57:22;;;;;;;16.02;10.00;;;;;;;;;;6252632;22;20038;-95
2024/04/13 23:59:48;;;;;;;22.48;13.50;;;;;;;;;;6252444;22;20004;-95
